sensor_id;sensor_type;location;lat;lon;timestamp;pressure;altitude;pressure_sealevel;temperature;humidity
60642;BME280;46837;52.446;-1.930;2023-04-09T00:00:09;101028.39;;;9.06;68.52
60642;BME280;46837;52.446;-1.930;2023-04-09T00:01:09;101032.58;;;9.10;68.41
60642;BME280;46837;52.446;-1.930;2023-04-09T00:02:11;101035.68;;;9.15;68.21
60642;BME280;46837;52.446;-1.930;2023-04-09T00:03:09;101031.39;;;9.13;68.19
60642;BME280;46837;52.446;-1.930;2023-04-09T00:04:09;101030.07;;;9.20;67.98
60642;BME280;46837;52.446;-1.930;2023-04-09T00:05:09;101032.89;;;9.24;67.80
60642;BME280;46837;52.446;-1.930;2023-04-09T00:06:09;101037.30;;;9.17;68.13
60642;BME280;46837;52.446;-1.930;2023-04-09T00:07:09;101031.51;;;9.16;68.07
60642;BME280;46837;52.446;-1.930;2023-04-09T00:08:09;101029.85;;;9.17;68.05
60642;BME280;46837;52.446;-1.930;2023-04-09T00:09:09;101026.84;;;9.17;68.03
60642;BME280;46837;52.446;-1.930;2023-04-09T00:10:09;101026.04;;;9.15;68.16
60642;BME280;46837;52.446;-1.930;2023-04-09T00:11:09;101027.09;;;9.15;68.15
60642;BME280;46837;52.446;-1.930;2023-04-09T00:12:09;101026.04;;;9.15;68.12
60642;BME280;46837;52.446;-1.930;2023-04-09T00:13:09;101024.86;;;9.16;68.05
60642;BME280;46837;52.446;-1.930;2023-04-09T00:14:09;101024.26;;;9.17;68.11
60642;BME280;46837;52.446;-1.930;2023-04-09T00:15:09;101021.64;;;9.11;68.35
60642;BME280;46837;52.446;-1.930;2023-04-09T00:16:09;101021.02;;;9.13;68.39
60642;BME280;46837;52.446;-1.930;2023-04-09T00:17:09;101021.74;;;9.16;68.15
60642;BME280;46837;52.446;-1.930;2023-04-09T00:18:09;101019.52;;;9.18;68.00
60642;BME280;46837;52.446;-1.930;2023-04-09T00:19:09;101017.16;;;9.13;68.24
60642;BME280;46837;52.446;-1.930;2023-04-09T00:20:09;101016.46;;;9.16;68.12
60642;BME280;46837;52.446;-1.930;2023-04-09T00:21:09;101021.57;;;9.12;68.23
60642;BME280;46837;52.446;-1.930;2023-04-09T00:22:09;101021.01;;;9.10;68.38
60642;BME280;46837;52.446;-1.930;2023-04-09T00:23:09;101022.57;;;9.08;68.43
60642;BME280;46837;52.446;-1.930;2023-04-09T00:24:09;101022.00;;;9.05;68.44
60642;BME280;46837;52.446;-1.930;2023-04-09T00:25:09;101023.10;;;9.05;68.50
60642;BME280;46837;52.446;-1.930;2023-04-09T00:26:09;101021.33;;;9.04;68.57
60642;BME280;46837;52.446;-1.930;2023-04-09T00:27:09;101024.25;;;9.05;68.50
60642;BME280;46837;52.446;-1.930;2023-04-09T00:28:09;101021.03;;;9.06;68.44
60642;BME280;46837;52.446;-1.930;2023-04-09T00:29:09;101023.57;;;9.05;68.54
60642;BME280;46837;52.446;-1.930;2023-04-09T00:30:09;101019.33;;;8.93;68.99
60642;BME280;46837;52.446;-1.930;2023-04-09T00:31:09;101016.25;;;8.92;69.05
60642;BME280;46837;52.446;-1.930;2023-04-09T00:32:09;101016.75;;;8.95;69.05
60642;BME280;46837;52.446;-1.930;2023-04-09T00:33:09;101017.28;;;8.95;69.04
60642;BME280;46837;52.446;-1.930;2023-04-09T00:34:09;101016.17;;;8.89;69.25
60642;BME280;46837;52.446;-1.930;2023-04-09T00:35:09;101012.21;;;8.87;69.41
60642;BME280;46837;52.446;-1.930;2023-04-09T00:36:09;101012.81;;;8.92;69.31
60642;BME280;46837;52.446;-1.930;2023-04-09T00:37:09;101012.18;;;8.93;69.23
60642;BME280;46837;52.446;-1.930;2023-04-09T00:38:09;101012.37;;;8.97;69.04
60642;BME280;46837;52.446;-1.930;2023-04-09T00:39:09;101010.88;;;8.99;68.96
60642;BME280;46837;52.446;-1.930;2023-04-09T00:40:09;101007.52;;;9.01;68.86
60642;BME280;46837;52.446;-1.930;2023-04-09T00:41:09;101008.35;;;8.93;69.26
60642;BME280;46837;52.446;-1.930;2023-04-09T00:42:09;101006.11;;;8.97;69.25
60642;BME280;46837;52.446;-1.930;2023-04-09T00:43:09;101008.23;;;8.94;69.32
60642;BME280;46837;52.446;-1.930;2023-04-09T00:44:09;101007.44;;;8.89;69.59
60642;BME280;46837;52.446;-1.930;2023-04-09T00:45:09;101008.03;;;8.95;69.50
60642;BME280;46837;52.446;-1.930;2023-04-09T00:46:09;101009.52;;;8.96;69.42
60642;BME280;46837;52.446;-1.930;2023-04-09T00:47:09;101006.18;;;8.93;69.51
60642;BME280;46837;52.446;-1.930;2023-04-09T00:48:09;101006.07;;;8.95;69.57
60642;BME280;46837;52.446;-1.930;2023-04-09T00:49:09;101004.93;;;8.91;69.75
60642;BME280;46837;52.446;-1.930;2023-04-09T00:50:09;101002.84;;;8.95;69.73
60642;BME280;46837;52.446;-1.930;2023-04-09T00:51:09;101001.28;;;8.99;69.51
60642;BME280;46837;52.446;-1.930;2023-04-09T00:52:09;101001.92;;;9.02;69.33
60642;BME280;46837;52.446;-1.930;2023-04-09T00:53:09;100999.14;;;9.02;69.35
60642;BME280;46837;52.446;-1.930;2023-04-09T00:54:09;100998.54;;;9.02;69.38
60642;BME280;46837;52.446;-1.930;2023-04-09T00:55:09;100995.41;;;9.01;69.50
60642;BME280;46837;52.446;-1.930;2023-04-09T00:56:10;100993.27;;;9.00;69.53
60642;BME280;46837;52.446;-1.930;2023-04-09T00:57:09;100992.12;;;8.96;69.76
60642;BME280;46837;52.446;-1.930;2023-04-09T00:58:09;100989.52;;;8.94;69.90
60642;BME280;46837;52.446;-1.930;2023-04-09T00:59:09;100990.71;;;8.96;69.82
60642;BME280;46837;52.446;-1.930;2023-04-09T01:00:09;100991.05;;;8.99;69.70
60642;BME280;46837;52.446;-1.930;2023-04-09T01:01:09;100988.17;;;9.01;69.66
60642;BME280;46837;52.446;-1.930;2023-04-09T01:02:09;100986.79;;;9.05;69.53
60642;BME280;46837;52.446;-1.930;2023-04-09T01:03:09;100983.29;;;9.08;69.41
60642;BME280;46837;52.446;-1.930;2023-04-09T01:04:09;100984.58;;;9.10;69.36
60642;BME280;46837;52.446;-1.930;2023-04-09T01:05:09;100981.94;;;9.11;69.34
60642;BME280;46837;52.446;-1.930;2023-04-09T01:08:24;100979.46;;;9.12;69.39
60642;BME280;46837;52.446;-1.930;2023-04-09T01:13:17;100972.31;;;9.00;70.05
60642;BME280;46837;52.446;-1.930;2023-04-09T01:15:14;100970.16;;;9.03;69.77
60642;BME280;46837;52.446;-1.930;2023-04-09T01:16:09;100972.03;;;9.02;69.90
60642;BME280;46837;52.446;-1.930;2023-04-09T01:20:11;100967.75;;;8.96;70.20
60642;BME280;46837;52.446;-1.930;2023-04-09T01:21:15;100965.73;;;8.90;70.24
60642;BME280;46837;52.446;-1.930;2023-04-09T01:22:19;100966.04;;;8.91;70.36
60642;BME280;46837;52.446;-1.930;2023-04-09T01:23:22;100964.08;;;8.92;70.31
60642;BME280;46837;52.446;-1.930;2023-04-09T01:27:09;100957.12;;;8.99;69.99
60642;BME280;46837;52.446;-1.930;2023-04-09T01:28:18;100960.16;;;9.03;69.85
60642;BME280;46837;52.446;-1.930;2023-04-09T01:29:09;100960.77;;;9.07;69.75
60642;BME280;46837;52.446;-1.930;2023-04-09T01:30:09;100958.54;;;9.08;69.57
60642;BME280;46837;52.446;-1.930;2023-04-09T01:31:14;100959.18;;;9.10;69.50
60642;BME280;46837;52.446;-1.930;2023-04-09T01:32:09;100955.39;;;9.08;69.57
60642;BME280;46837;52.446;-1.930;2023-04-09T01:33:09;100960.56;;;9.11;69.48
60642;BME280;46837;52.446;-1.930;2023-04-09T01:34:09;100958.20;;;9.13;69.36
60642;BME280;46837;52.446;-1.930;2023-04-09T01:35:09;100957.05;;;9.12;69.35
60642;BME280;46837;52.446;-1.930;2023-04-09T01:36:09;100953.73;;;9.13;69.35
60642;BME280;46837;52.446;-1.930;2023-04-09T01:37:09;100953.61;;;9.15;69.27
60642;BME280;46837;52.446;-1.930;2023-04-09T01:38:09;100954.48;;;9.17;69.12
60642;BME280;46837;52.446;-1.930;2023-04-09T01:39:09;100954.50;;;9.21;68.98
60642;BME280;46837;52.446;-1.930;2023-04-09T01:40:09;100953.84;;;9.18;69.05
60642;BME280;46837;52.446;-1.930;2023-04-09T01:41:11;100952.26;;;9.18;69.02
60642;BME280;46837;52.446;-1.930;2023-04-09T01:42:11;100949.54;;;9.15;69.13
60642;BME280;46837;52.446;-1.930;2023-04-09T01:43:09;100949.12;;;9.16;69.10
60642;BME280;46837;52.446;-1.930;2023-04-09T01:44:09;100949.27;;;9.15;69.13
60642;BME280;46837;52.446;-1.930;2023-04-09T01:45:10;100949.34;;;9.08;69.32
60642;BME280;46837;52.446;-1.930;2023-04-09T01:46:09;100949.39;;;9.09;69.33
60642;BME280;46837;52.446;-1.930;2023-04-09T01:47:09;100952.41;;;9.10;69.24
60642;BME280;46837;52.446;-1.930;2023-04-09T01:48:09;100950.15;;;9.05;69.39
60642;BME280;46837;52.446;-1.930;2023-04-09T01:49:09;100948.87;;;9.04;69.48
60642;BME280;46837;52.446;-1.930;2023-04-09T01:50:09;100946.61;;;9.08;69.30
60642;BME280;46837;52.446;-1.930;2023-04-09T01:51:09;100954.11;;;9.10;69.19
60642;BME280;46837;52.446;-1.930;2023-04-09T01:52:09;100951.56;;;9.11;69.19
60642;BME280;46837;52.446;-1.930;2023-04-09T01:53:09;100952.05;;;9.11;69.17
60642;BME280;46837;52.446;-1.930;2023-04-09T01:54:09;100951.03;;;9.09;69.19
60642;BME280;46837;52.446;-1.930;2023-04-09T01:55:09;100951.37;;;9.09;69.20
60642;BME280;46837;52.446;-1.930;2023-04-09T01:56:09;100952.82;;;9.11;69.05
60642;BME280;46837;52.446;-1.930;2023-04-09T01:57:09;100952.35;;;9.12;69.02
60642;BME280;46837;52.446;-1.930;2023-04-09T01:58:09;100952.12;;;9.11;68.96
60642;BME280;46837;52.446;-1.930;2023-04-09T01:59:09;100952.50;;;9.09;68.97
60642;BME280;46837;52.446;-1.930;2023-04-09T02:00:09;100951.80;;;9.06;69.09
60642;BME280;46837;52.446;-1.930;2023-04-09T02:02:19;100951.07;;;9.06;69.04
60642;BME280;46837;52.446;-1.930;2023-04-09T02:03:16;100953.43;;;9.05;69.05
60642;BME280;46837;52.446;-1.930;2023-04-09T02:04:21;100951.94;;;9.06;69.02
60642;BME280;46837;52.446;-1.930;2023-04-09T02:05:09;100951.72;;;9.03;69.10
60642;BME280;46837;52.446;-1.930;2023-04-09T02:07:20;100950.91;;;9.00;69.24
60642;BME280;46837;52.446;-1.930;2023-04-09T02:08:10;100948.40;;;9.01;69.14
60642;BME280;46837;52.446;-1.930;2023-04-09T02:09:09;100946.72;;;9.01;69.11
60642;BME280;46837;52.446;-1.930;2023-04-09T02:10:09;100948.87;;;8.94;69.37
60642;BME280;46837;52.446;-1.930;2023-04-09T02:11:09;100949.25;;;8.92;69.42
60642;BME280;46837;52.446;-1.930;2023-04-09T02:12:11;100948.73;;;8.93;69.42
60642;BME280;46837;52.446;-1.930;2023-04-09T02:13:09;100947.84;;;8.94;69.33
60642;BME280;46837;52.446;-1.930;2023-04-09T02:14:10;100949.94;;;8.94;69.26
60642;BME280;46837;52.446;-1.930;2023-04-09T02:15:09;100945.51;;;8.93;69.27
60642;BME280;46837;52.446;-1.930;2023-04-09T02:16:10;100945.76;;;8.91;69.33
60642;BME280;46837;52.446;-1.930;2023-04-09T02:17:09;100944.39;;;8.92;69.31
60642;BME280;46837;52.446;-1.930;2023-04-09T02:19:09;100946.13;;;8.84;69.56
60642;BME280;46837;52.446;-1.930;2023-04-09T02:20:09;100943.85;;;8.85;69.53
60642;BME280;46837;52.446;-1.930;2023-04-09T02:21:09;100945.64;;;8.82;69.60
60642;BME280;46837;52.446;-1.930;2023-04-09T02:22:09;100942.09;;;8.79;69.66
60642;BME280;46837;52.446;-1.930;2023-04-09T02:23:09;100944.45;;;8.79;69.63
60642;BME280;46837;52.446;-1.930;2023-04-09T02:24:09;100941.75;;;8.73;69.76
60642;BME280;46837;52.446;-1.930;2023-04-09T02:25:09;100943.86;;;8.72;69.91
60642;BME280;46837;52.446;-1.930;2023-04-09T02:26:09;100943.35;;;8.75;69.74
60642;BME280;46837;52.446;-1.930;2023-04-09T02:27:09;100944.25;;;8.70;69.81
60642;BME280;46837;52.446;-1.930;2023-04-09T02:28:09;100945.62;;;8.62;70.12
60642;BME280;46837;52.446;-1.930;2023-04-09T02:29:09;100942.04;;;8.59;70.33
60642;BME280;46837;52.446;-1.930;2023-04-09T02:30:09;100946.75;;;8.57;70.38
60642;BME280;46837;52.446;-1.930;2023-04-09T02:31:09;100945.23;;;8.54;70.40
60642;BME280;46837;52.446;-1.930;2023-04-09T02:32:09;100944.22;;;8.51;70.64
60642;BME280;46837;52.446;-1.930;2023-04-09T02:33:09;100945.58;;;8.55;70.38
60642;BME280;46837;52.446;-1.930;2023-04-09T02:34:09;100944.23;;;8.55;70.28
60642;BME280;46837;52.446;-1.930;2023-04-09T02:35:09;100944.46;;;8.56;70.26
60642;BME280;46837;52.446;-1.930;2023-04-09T02:36:11;100942.97;;;8.58;70.15
60642;BME280;46837;52.446;-1.930;2023-04-09T02:37:09;100944.18;;;8.54;70.20
60642;BME280;46837;52.446;-1.930;2023-04-09T02:38:09;100944.07;;;8.49;70.44
60642;BME280;46837;52.446;-1.930;2023-04-09T02:39:09;100943.23;;;8.48;70.45
60642;BME280;46837;52.446;-1.930;2023-04-09T02:40:09;100944.70;;;8.46;70.45
60642;BME280;46837;52.446;-1.930;2023-04-09T02:41:09;100944.45;;;8.47;70.39
60642;BME280;46837;52.446;-1.930;2023-04-09T02:42:09;100942.25;;;8.48;70.30
60642;BME280;46837;52.446;-1.930;2023-04-09T02:43:09;100944.61;;;8.47;70.32
60642;BME280;46837;52.446;-1.930;2023-04-09T02:44:09;100945.66;;;8.41;70.52
60642;BME280;46837;52.446;-1.930;2023-04-09T02:45:09;100945.52;;;8.40;70.61
60642;BME280;46837;52.446;-1.930;2023-04-09T02:46:09;100946.77;;;8.39;70.65
60642;BME280;46837;52.446;-1.930;2023-04-09T02:47:09;100946.94;;;8.39;70.59
60642;BME280;46837;52.446;-1.930;2023-04-09T02:48:09;100948.11;;;8.38;70.57
60642;BME280;46837;52.446;-1.930;2023-04-09T02:49:09;100951.08;;;8.40;70.50
60642;BME280;46837;52.446;-1.930;2023-04-09T02:50:09;100949.84;;;8.42;70.38
60642;BME280;46837;52.446;-1.930;2023-04-09T02:51:09;100951.04;;;8.40;70.36
60642;BME280;46837;52.446;-1.930;2023-04-09T02:52:09;100947.73;;;8.38;70.34
60642;BME280;46837;52.446;-1.930;2023-04-09T02:53:09;100947.95;;;8.36;70.38
60642;BME280;46837;52.446;-1.930;2023-04-09T02:54:09;100946.71;;;8.33;70.48
60642;BME280;46837;52.446;-1.930;2023-04-09T02:55:09;100946.29;;;8.34;70.49
60642;BME280;46837;52.446;-1.930;2023-04-09T02:56:09;100944.86;;;8.31;70.53
60642;BME280;46837;52.446;-1.930;2023-04-09T02:57:09;100946.99;;;8.32;70.59
60642;BME280;46837;52.446;-1.930;2023-04-09T02:58:09;100944.91;;;8.35;70.42
60642;BME280;46837;52.446;-1.930;2023-04-09T02:59:09;100940.24;;;8.34;70.32
60642;BME280;46837;52.446;-1.930;2023-04-09T03:00:09;100937.34;;;8.29;70.50
60642;BME280;46837;52.446;-1.930;2023-04-09T03:01:09;100937.68;;;8.25;70.66
60642;BME280;46837;52.446;-1.930;2023-04-09T03:02:09;100941.25;;;8.28;70.63
60642;BME280;46837;52.446;-1.930;2023-04-09T03:03:09;100939.79;;;8.22;70.70
60642;BME280;46837;52.446;-1.930;2023-04-09T03:04:09;100940.45;;;8.24;70.77
60642;BME280;46837;52.446;-1.930;2023-04-09T03:05:09;100938.91;;;8.24;70.69
60642;BME280;46837;52.446;-1.930;2023-04-09T03:06:09;100937.76;;;8.24;70.66
60642;BME280;46837;52.446;-1.930;2023-04-09T03:07:09;100935.20;;;8.22;70.72
60642;BME280;46837;52.446;-1.930;2023-04-09T03:08:09;100935.41;;;8.21;70.68
60642;BME280;46837;52.446;-1.930;2023-04-09T03:09:09;100935.00;;;8.20;70.73
60642;BME280;46837;52.446;-1.930;2023-04-09T03:10:09;100931.79;;;8.18;70.79
60642;BME280;46837;52.446;-1.930;2023-04-09T03:11:09;100932.71;;;8.13;70.96
60642;BME280;46837;52.446;-1.930;2023-04-09T03:12:09;100926.95;;;8.12;71.03
60642;BME280;46837;52.446;-1.930;2023-04-09T03:13:09;100928.43;;;8.10;71.09
60642;BME280;46837;52.446;-1.930;2023-04-09T03:14:09;100932.70;;;8.09;71.15
60642;BME280;46837;52.446;-1.930;2023-04-09T03:15:09;100929.92;;;8.09;71.16
60642;BME280;46837;52.446;-1.930;2023-04-09T03:16:09;100929.52;;;8.07;71.13
60642;BME280;46837;52.446;-1.930;2023-04-09T03:17:09;100928.46;;;8.05;71.15
60642;BME280;46837;52.446;-1.930;2023-04-09T03:18:09;100928.27;;;7.93;71.48
60642;BME280;46837;52.446;-1.930;2023-04-09T03:19:09;100927.77;;;7.86;71.91
60642;BME280;46837;52.446;-1.930;2023-04-09T03:20:09;100923.58;;;7.91;71.91
60642;BME280;46837;52.446;-1.930;2023-04-09T03:21:09;100923.25;;;7.91;71.71
60642;BME280;46837;52.446;-1.930;2023-04-09T03:22:09;100922.67;;;7.91;71.69
60642;BME280;46837;52.446;-1.930;2023-04-09T03:23:09;100921.17;;;7.85;71.79
60642;BME280;46837;52.446;-1.930;2023-04-09T03:24:09;100922.14;;;7.77;72.23
60642;BME280;46837;52.446;-1.930;2023-04-09T03:25:09;100923.08;;;7.73;72.48
60642;BME280;46837;52.446;-1.930;2023-04-09T03:26:09;100924.51;;;7.72;72.49
60642;BME280;46837;52.446;-1.930;2023-04-09T03:27:09;100923.74;;;7.71;72.42
60642;BME280;46837;52.446;-1.930;2023-04-09T03:28:09;100920.78;;;7.71;72.40
60642;BME280;46837;52.446;-1.930;2023-04-09T03:29:09;100921.88;;;7.69;72.45
60642;BME280;46837;52.446;-1.930;2023-04-09T03:30:09;100922.93;;;7.71;72.32
60642;BME280;46837;52.446;-1.930;2023-04-09T03:31:09;100921.32;;;7.70;72.31
60642;BME280;46837;52.446;-1.930;2023-04-09T03:32:09;100919.02;;;7.68;72.35
60642;BME280;46837;52.446;-1.930;2023-04-09T03:33:09;100917.20;;;7.69;72.45
60642;BME280;46837;52.446;-1.930;2023-04-09T03:34:09;100919.48;;;7.69;72.46
60642;BME280;46837;52.446;-1.930;2023-04-09T03:35:09;100920.62;;;7.69;72.41
60642;BME280;46837;52.446;-1.930;2023-04-09T03:36:09;100916.85;;;7.68;72.35
60642;BME280;46837;52.446;-1.930;2023-04-09T03:37:09;100919.20;;;7.68;72.34
60642;BME280;46837;52.446;-1.930;2023-04-09T03:38:09;100921.76;;;7.69;72.26
60642;BME280;46837;52.446;-1.930;2023-04-09T03:39:09;100917.31;;;7.65;72.38
60642;BME280;46837;52.446;-1.930;2023-04-09T03:40:09;100919.97;;;7.69;72.22
60642;BME280;46837;52.446;-1.930;2023-04-09T03:41:09;100920.04;;;7.65;72.21
60642;BME280;46837;52.446;-1.930;2023-04-09T03:42:09;100917.36;;;7.63;72.38
60642;BME280;46837;52.446;-1.930;2023-04-09T03:43:09;100919.02;;;7.62;72.42
60642;BME280;46837;52.446;-1.930;2023-04-09T03:44:09;100916.43;;;7.59;72.41
60642;BME280;46837;52.446;-1.930;2023-04-09T03:45:09;100915.68;;;7.54;72.57
60642;BME280;46837;52.446;-1.930;2023-04-09T03:46:14;100916.21;;;7.56;72.52
60642;BME280;46837;52.446;-1.930;2023-04-09T03:47:09;100911.36;;;7.52;72.49
60642;BME280;46837;52.446;-1.930;2023-04-09T03:48:09;100912.09;;;7.49;72.70
60642;BME280;46837;52.446;-1.930;2023-04-09T03:49:09;100910.96;;;7.48;72.67
60642;BME280;46837;52.446;-1.930;2023-04-09T03:50:09;100911.41;;;7.48;72.73
60642;BME280;46837;52.446;-1.930;2023-04-09T03:51:16;100909.14;;;7.46;72.58
60642;BME280;46837;52.446;-1.930;2023-04-09T03:52:09;100910.30;;;7.43;72.68
60642;BME280;46837;52.446;-1.930;2023-04-09T03:53:09;100907.28;;;7.36;72.83
60642;BME280;46837;52.446;-1.930;2023-04-09T03:54:09;100907.51;;;7.31;73.02
60642;BME280;46837;52.446;-1.930;2023-04-09T03:55:09;100906.40;;;7.26;73.19
60642;BME280;46837;52.446;-1.930;2023-04-09T03:56:09;100904.30;;;7.25;73.22
60642;BME280;46837;52.446;-1.930;2023-04-09T03:57:09;100905.90;;;7.24;73.28
60642;BME280;46837;52.446;-1.930;2023-04-09T03:58:09;100900.89;;;7.22;73.37
60642;BME280;46837;52.446;-1.930;2023-04-09T03:59:09;100898.45;;;7.20;73.43
60642;BME280;46837;52.446;-1.930;2023-04-09T04:00:09;100897.87;;;7.18;73.44
60642;BME280;46837;52.446;-1.930;2023-04-09T04:01:09;100898.26;;;7.17;73.46
60642;BME280;46837;52.446;-1.930;2023-04-09T04:02:09;100895.41;;;7.16;73.53
60642;BME280;46837;52.446;-1.930;2023-04-09T04:03:10;100893.45;;;7.15;73.48
60642;BME280;46837;52.446;-1.930;2023-04-09T04:04:09;100891.69;;;7.13;73.57
60642;BME280;46837;52.446;-1.930;2023-04-09T04:05:09;100897.02;;;7.14;73.48
60642;BME280;46837;52.446;-1.930;2023-04-09T04:06:09;100895.11;;;7.10;73.55
60642;BME280;46837;52.446;-1.930;2023-04-09T04:07:09;100899.12;;;7.05;73.62
60642;BME280;46837;52.446;-1.930;2023-04-09T04:08:09;100894.69;;;7.02;73.80
60642;BME280;46837;52.446;-1.930;2023-04-09T04:09:09;100894.17;;;6.96;73.93
60642;BME280;46837;52.446;-1.930;2023-04-09T04:10:09;100894.74;;;6.98;74.09
60642;BME280;46837;52.446;-1.930;2023-04-09T04:11:09;100893.11;;;7.04;73.81
60642;BME280;46837;52.446;-1.930;2023-04-09T04:12:09;100890.34;;;7.06;73.65
60642;BME280;46837;52.446;-1.930;2023-04-09T04:13:09;100889.27;;;7.07;73.48
60642;BME280;46837;52.446;-1.930;2023-04-09T04:14:09;100883.52;;;7.09;73.37
60642;BME280;46837;52.446;-1.930;2023-04-09T04:15:09;100882.72;;;7.06;73.44
60642;BME280;46837;52.446;-1.930;2023-04-09T04:16:09;100880.81;;;7.03;73.52
60642;BME280;46837;52.446;-1.930;2023-04-09T04:17:09;100882.51;;;7.02;73.55
60642;BME280;46837;52.446;-1.930;2023-04-09T04:18:09;100881.52;;;7.01;73.53
60642;BME280;46837;52.446;-1.930;2023-04-09T04:19:09;100881.60;;;7.03;73.42
60642;BME280;46837;52.446;-1.930;2023-04-09T04:20:09;100883.27;;;6.99;73.45
60642;BME280;46837;52.446;-1.930;2023-04-09T04:21:12;100880.02;;;6.97;73.52
60642;BME280;46837;52.446;-1.930;2023-04-09T04:22:09;100878.76;;;6.96;73.54
60642;BME280;46837;52.446;-1.930;2023-04-09T04:23:09;100879.89;;;6.89;73.81
60642;BME280;46837;52.446;-1.930;2023-04-09T04:24:09;100878.03;;;6.80;74.19
60642;BME280;46837;52.446;-1.930;2023-04-09T04:25:09;100884.05;;;6.78;74.37
60642;BME280;46837;52.446;-1.930;2023-04-09T04:26:09;100880.19;;;6.71;74.46
60642;BME280;46837;52.446;-1.930;2023-04-09T04:27:09;100881.75;;;6.71;74.62
60642;BME280;46837;52.446;-1.930;2023-04-09T04:28:09;100880.82;;;6.71;74.61
60642;BME280;46837;52.446;-1.930;2023-04-09T04:29:09;100882.14;;;6.65;74.67
60642;BME280;46837;52.446;-1.930;2023-04-09T04:30:09;100878.39;;;6.64;74.63
60642;BME280;46837;52.446;-1.930;2023-04-09T04:31:11;100876.62;;;6.62;74.69
60642;BME280;46837;52.446;-1.930;2023-04-09T04:32:09;100872.36;;;6.62;74.66
60642;BME280;46837;52.446;-1.930;2023-04-09T04:33:09;100870.57;;;6.62;74.61
60642;BME280;46837;52.446;-1.930;2023-04-09T04:34:09;100868.02;;;6.56;74.64
60642;BME280;46837;52.446;-1.930;2023-04-09T04:35:09;100865.74;;;6.56;74.67
60642;BME280;46837;52.446;-1.930;2023-04-09T04:36:10;100865.95;;;6.56;74.63
60642;BME280;46837;52.446;-1.930;2023-04-09T04:37:09;100861.91;;;6.61;74.57
60642;BME280;46837;52.446;-1.930;2023-04-09T04:38:09;100863.87;;;6.63;74.27
60642;BME280;46837;52.446;-1.930;2023-04-09T04:39:09;100858.67;;;6.56;74.43
60642;BME280;46837;52.446;-1.930;2023-04-09T04:40:09;100857.43;;;6.56;74.54
60642;BME280;46837;52.446;-1.930;2023-04-09T04:41:09;100855.55;;;6.59;74.54
60642;BME280;46837;52.446;-1.930;2023-04-09T04:42:09;100855.63;;;6.54;74.58
60642;BME280;46837;52.446;-1.930;2023-04-09T04:43:09;100855.43;;;6.53;74.68
60642;BME280;46837;52.446;-1.930;2023-04-09T04:44:09;100858.39;;;6.55;74.68
60642;BME280;46837;52.446;-1.930;2023-04-09T04:45:09;100855.16;;;6.53;74.65
60642;BME280;46837;52.446;-1.930;2023-04-09T04:46:09;100853.89;;;6.52;74.73
60642;BME280;46837;52.446;-1.930;2023-04-09T04:47:09;100855.18;;;6.50;74.80
60642;BME280;46837;52.446;-1.930;2023-04-09T04:48:09;100854.38;;;6.49;74.66
60642;BME280;46837;52.446;-1.930;2023-04-09T04:49:09;100855.67;;;6.40;74.94
60642;BME280;46837;52.446;-1.930;2023-04-09T04:50:09;100852.18;;;6.39;75.13
60642;BME280;46837;52.446;-1.930;2023-04-09T04:51:09;100851.61;;;6.37;75.19
60642;BME280;46837;52.446;-1.930;2023-04-09T04:52:09;100851.85;;;6.37;75.28
60642;BME280;46837;52.446;-1.930;2023-04-09T04:53:09;100847.88;;;6.42;75.09
60642;BME280;46837;52.446;-1.930;2023-04-09T04:54:09;100847.71;;;6.45;74.96
60642;BME280;46837;52.446;-1.930;2023-04-09T04:55:09;100851.90;;;6.45;74.83
60642;BME280;46837;52.446;-1.930;2023-04-09T04:56:14;100850.13;;;6.48;74.82
60642;BME280;46837;52.446;-1.930;2023-04-09T04:57:09;100850.49;;;6.44;75.16
60642;BME280;46837;52.446;-1.930;2023-04-09T04:58:09;100856.68;;;6.46;75.39
60642;BME280;46837;52.446;-1.930;2023-04-09T04:59:09;100859.52;;;6.52;75.22
60642;BME280;46837;52.446;-1.930;2023-04-09T05:00:09;100863.03;;;6.53;75.03
60642;BME280;46837;52.446;-1.930;2023-04-09T05:01:09;100867.20;;;6.54;75.16
60642;BME280;46837;52.446;-1.930;2023-04-09T05:02:09;100867.12;;;6.59;74.94
60642;BME280;46837;52.446;-1.930;2023-04-09T05:03:09;100865.96;;;6.60;74.90
60642;BME280;46837;52.446;-1.930;2023-04-09T05:04:09;100867.72;;;6.61;75.01
60642;BME280;46837;52.446;-1.930;2023-04-09T05:05:09;100865.45;;;6.65;74.93
60642;BME280;46837;52.446;-1.930;2023-04-09T05:06:09;100868.97;;;6.68;74.81
60642;BME280;46837;52.446;-1.930;2023-04-09T05:07:09;100870.16;;;6.66;74.82
60642;BME280;46837;52.446;-1.930;2023-04-09T05:08:09;100868.04;;;6.66;75.06
60642;BME280;46837;52.446;-1.930;2023-04-09T05:09:09;100866.60;;;6.67;74.85
60642;BME280;46837;52.446;-1.930;2023-04-09T05:10:09;100866.10;;;6.67;74.91
60642;BME280;46837;52.446;-1.930;2023-04-09T05:11:11;100866.41;;;6.66;74.95
60642;BME280;46837;52.446;-1.930;2023-04-09T05:12:09;100865.45;;;6.63;75.09
60642;BME280;46837;52.446;-1.930;2023-04-09T05:13:09;100862.87;;;6.60;75.48
60642;BME280;46837;52.446;-1.930;2023-04-09T05:14:09;100862.66;;;6.62;75.35
60642;BME280;46837;52.446;-1.930;2023-04-09T05:15:09;100860.44;;;6.61;75.30
60642;BME280;46837;52.446;-1.930;2023-04-09T05:16:14;100860.00;;;6.58;75.55
60642;BME280;46837;52.446;-1.930;2023-04-09T05:17:09;100861.95;;;6.61;75.52
60642;BME280;46837;52.446;-1.930;2023-04-09T05:18:09;100858.76;;;6.57;75.47
60642;BME280;46837;52.446;-1.930;2023-04-09T05:19:09;100862.97;;;6.56;75.65
60642;BME280;46837;52.446;-1.930;2023-04-09T05:20:09;100858.98;;;6.59;75.47
60642;BME280;46837;52.446;-1.930;2023-04-09T05:21:09;100860.86;;;6.62;75.32
60642;BME280;46837;52.446;-1.930;2023-04-09T05:22:09;100865.45;;;6.59;75.32
60642;BME280;46837;52.446;-1.930;2023-04-09T05:23:09;100861.17;;;6.52;75.64
60642;BME280;46837;52.446;-1.930;2023-04-09T05:24:09;100861.34;;;6.52;75.73
60642;BME280;46837;52.446;-1.930;2023-04-09T05:25:09;100858.74;;;6.50;75.94
60642;BME280;46837;52.446;-1.930;2023-04-09T05:26:09;100857.62;;;6.48;76.03
60642;BME280;46837;52.446;-1.930;2023-04-09T05:27:09;100856.35;;;6.42;76.14
60642;BME280;46837;52.446;-1.930;2023-04-09T05:28:09;100856.51;;;6.40;76.35
60642;BME280;46837;52.446;-1.930;2023-04-09T05:29:09;100855.65;;;6.41;76.51